createdAt,value
2018-04-14T03:22:10.363Z,8.20
2018-04-14T03:23:10.359Z,7.93
2018-04-14T03:24:10.340Z,7.82
2018-04-14T03:25:10.320Z,7.99
2018-04-14T03:26:10.310Z,8.14
2018-04-14T03:27:10.296Z,8.10
2018-04-14T03:28:10.289Z,8.07
2018-04-14T03:29:10.422Z,8.20
2018-04-14T03:30:10.279Z,7.82
2018-04-14T03:31:10.272Z,7.69
2018-04-14T03:32:10.259Z,8.15
2018-04-14T03:33:10.251Z,8.00
2018-04-14T03:34:10.242Z,7.94
2018-04-14T03:35:10.239Z,8.03
2018-04-14T03:36:10.229Z,7.79
2018-04-14T03:37:10.237Z,7.81
2018-04-14T03:38:10.241Z,7.78
2018-04-14T03:39:10.233Z,7.85
2018-04-14T03:40:10.220Z,8.02
2018-04-14T03:41:10.208Z,8.14
2018-04-14T03:42:10.203Z,7.94
2018-04-14T03:43:10.186Z,8.12
2018-04-14T03:44:10.180Z,8.03
2018-04-14T03:45:10.170Z,7.96
2018-04-14T03:46:10.180Z,8.02
2018-04-14T03:47:10.159Z,7.84
2018-04-14T03:48:10.156Z,7.67
2018-04-14T03:49:10.160Z,7.77
2018-04-14T03:50:10.146Z,7.77
2018-04-14T03:51:10.138Z,7.82
2018-04-14T03:52:10.137Z,7.85
2018-04-14T03:53:10.129Z,7.99
2018-04-14T03:54:10.133Z,8.11
2018-04-14T03:55:10.109Z,8.11
2018-04-14T03:56:10.111Z,7.96
2018-04-14T03:57:10.131Z,8.07
2018-04-14T03:58:10.093Z,7.59
2018-04-14T03:59:10.091Z,7.66
2018-04-14T04:00:10.089Z,7.74
2018-04-14T04:01:10.898Z,7.79
2018-04-14T04:02:10.090Z,7.77
2018-04-14T04:03:10.072Z,7.84
2018-04-14T04:04:10.060Z,7.72
2018-04-14T04:05:10.053Z,7.75
2018-04-14T04:06:10.047Z,7.82
2018-04-14T04:07:10.039Z,7.75
2018-04-14T04:08:10.043Z,7.78
2018-04-14T04:09:10.035Z,8.07
2018-04-14T04:10:10.029Z,8.18
2018-04-14T04:11:10.090Z,8.07
2018-04-14T04:12:10.026Z,7.96
2018-04-14T04:13:10.001Z,8.00
2018-04-14T04:14:09.998Z,7.81
2018-04-14T04:15:09.992Z,7.63
2018-04-14T04:16:09.991Z,7.63
2018-04-14T04:17:09.992Z,7.60
2018-04-14T04:18:09.982Z,7.69
2018-04-14T04:19:09.992Z,7.75
2018-04-14T04:20:09.989Z,7.72
2018-04-14T04:21:09.993Z,7.77
2018-04-14T04:22:09.953Z,7.74
2018-04-14T04:23:09.963Z,7.79
2018-04-14T04:24:10.004Z,7.87
2018-04-14T04:25:09.937Z,8.02
2018-04-14T04:26:09.953Z,7.84
2018-04-14T04:27:09.925Z,7.74
2018-04-14T04:28:19.634Z,7.66
2018-04-14T04:30:03.429Z,7.55
2018-04-14T04:31:03.371Z,7.84
2018-04-14T04:32:03.368Z,7.56
2018-04-14T04:33:03.368Z,7.16
2018-04-14T04:34:03.353Z,6.90
2018-04-14T04:35:03.359Z,7.56
2018-04-14T04:36:03.364Z,7.31
2018-04-14T04:37:03.376Z,6.95
2018-04-14T04:38:03.329Z,6.97
2018-04-14T04:39:03.324Z,7.29
2018-04-14T04:40:03.322Z,7.05
2018-04-14T04:41:03.330Z,7.17
2018-04-14T04:42:03.312Z,7.05
2018-04-14T04:43:03.310Z,6.99
2018-04-14T04:44:03.392Z,6.94
2018-04-14T04:45:03.289Z,6.98
2018-04-14T04:46:03.320Z,7.07
2018-04-14T04:47:03.277Z,7.07
2018-04-14T04:48:03.309Z,7.29
2018-04-14T04:49:03.279Z,7.35
2018-04-14T04:50:03.300Z,7.69
2018-04-14T04:51:03.286Z,7.63
2018-04-14T04:52:03.266Z,7.53
2018-04-14T04:53:03.263Z,7.69
2018-04-14T04:54:03.281Z,7.59
2018-04-14T04:55:03.237Z,7.58
2018-04-14T04:56:03.232Z,7.45
2018-04-14T04:57:03.229Z,7.52
2018-04-14T04:58:03.230Z,7.52
2018-04-14T04:59:03.216Z,7.63
2018-04-14T05:00:03.211Z,7.77
2018-04-14T05:01:03.204Z,7.67
2018-04-14T05:02:03.206Z,7.78
2018-04-14T05:03:03.198Z,7.87
2018-04-14T05:04:03.191Z,7.85
2018-04-14T05:05:03.182Z,7.84
2018-04-14T05:06:03.203Z,7.60
2018-04-14T05:07:03.174Z,7.75
2018-04-14T05:08:03.164Z,7.81
2018-04-14T05:09:03.175Z,7.93
2018-04-14T05:10:03.156Z,7.90
2018-04-14T05:11:03.191Z,7.89
2018-04-14T05:12:03.142Z,7.89
2018-04-14T05:13:03.135Z,8.00
2018-04-14T05:14:03.139Z,8.21
2018-04-14T05:15:03.125Z,8.22
2018-04-14T05:16:03.137Z,8.30
2018-04-14T05:17:03.124Z,7.97
2018-04-14T05:18:03.118Z,8.29
2018-04-14T05:19:03.201Z,8.68
2018-04-14T05:20:03.112Z,8.75
2018-04-14T05:21:03.100Z,8.81
2018-04-14T05:22:03.107Z,8.87
2018-04-14T05:23:03.097Z,9.12
2018-04-14T05:24:03.095Z,9.10
2018-04-14T05:25:03.104Z,8.88
2018-04-14T05:27:26.371Z,9.32
2018-04-14T05:28:26.380Z,9.68
2018-04-14T05:29:26.374Z,9.78
2018-04-14T05:30:26.358Z,10.03
2018-04-14T05:31:26.341Z,10.33
2018-04-14T05:32:26.362Z,10.59
2018-04-14T05:33:26.351Z,11.03
2018-04-14T05:34:26.359Z,11.52
2018-04-14T05:35:26.370Z,11.56
2018-04-14T05:36:26.358Z,11.78
2018-04-14T05:37:26.360Z,11.90
2018-04-14T05:38:26.358Z,12.23
2018-04-14T05:39:26.355Z,12.57
2018-04-14T05:40:26.352Z,12.70
2018-04-14T05:41:26.406Z,13.07
2018-04-14T05:42:26.378Z,12.95
2018-04-14T05:43:26.369Z,13.12
2018-04-14T05:44:26.403Z,13.29
2018-04-14T05:45:26.381Z,13.51
2018-04-14T05:46:26.405Z,13.70
2018-04-14T05:47:26.418Z,13.87
2018-04-14T05:48:26.393Z,13.98
2018-04-14T05:49:26.401Z,14.27
2018-04-14T05:50:26.404Z,13.95
2018-04-14T05:51:26.409Z,13.95
2018-04-14T05:52:26.421Z,13.54
2018-04-14T05:53:26.432Z,13.02
2018-04-14T05:54:26.468Z,12.74
2018-04-14T05:55:26.467Z,12.71
2018-04-14T05:56:26.452Z,13.02
2018-04-14T05:57:26.521Z,13.87
2018-04-14T05:58:26.469Z,14.35
2018-04-14T05:59:26.483Z,15.23
2018-04-14T06:00:26.510Z,15.72
2018-04-14T06:01:26.509Z,15.94
2018-04-14T06:02:26.531Z,16.44
2018-04-14T06:03:26.508Z,16.59
2018-04-14T06:04:26.548Z,16.92
2018-04-14T06:05:26.559Z,16.93
2018-04-14T06:06:26.544Z,16.68
2018-04-14T06:07:26.546Z,16.20
2018-04-14T06:08:26.553Z,16.44
2018-04-14T06:09:26.559Z,16.16
2018-04-14T06:10:26.571Z,15.85
2018-04-14T06:11:26.687Z,14.90
2018-04-14T06:12:26.618Z,14.21
2018-04-14T06:13:26.706Z,13.62
2018-04-14T06:14:26.683Z,13.06
2018-04-14T06:15:26.618Z,12.89
2018-04-14T06:16:26.728Z,12.70
2018-04-14T06:17:26.710Z,12.59
2018-04-14T06:18:26.701Z,12.48
2018-04-14T06:19:26.629Z,12.46
2018-04-14T06:20:26.685Z,12.49
2018-04-14T06:21:26.625Z,12.44
2018-04-14T06:22:26.652Z,12.44
2018-04-14T06:23:26.627Z,12.45
2018-04-14T06:24:26.650Z,12.62
2018-04-14T06:25:26.655Z,12.34
2018-04-14T06:26:26.624Z,12.16
2018-04-14T06:27:26.692Z,12.15
2018-04-14T06:28:26.651Z,12.13
2018-04-14T06:29:26.632Z,12.21
2018-04-14T06:30:26.645Z,12.30
2018-04-14T06:31:26.642Z,12.11
2018-04-14T06:32:26.647Z,12.13
2018-04-14T06:33:26.661Z,12.13
2018-04-14T06:34:26.666Z,12.33
2018-04-14T06:35:26.693Z,12.31
2018-04-14T06:36:26.634Z,12.15
2018-04-14T06:37:26.680Z,12.16
2018-04-14T06:38:26.637Z,12.08
2018-04-14T06:39:26.643Z,12.08
2018-04-14T06:40:26.656Z,12.11
2018-04-14T06:41:26.672Z,12.19
2018-04-14T06:42:26.656Z,12.12
2018-04-14T06:43:26.660Z,12.12
2018-04-14T06:44:26.655Z,12.09
2018-04-14T06:45:26.640Z,12.11
2018-04-14T06:46:26.741Z,12.13
2018-04-14T06:47:26.657Z,12.09
2018-04-14T06:48:26.656Z,12.11
2018-04-14T06:49:26.638Z,11.97
2018-04-14T06:50:26.690Z,12.01
2018-04-14T06:51:26.632Z,12.11
2018-04-14T06:52:26.684Z,12.06
2018-04-14T06:53:26.627Z,12.06
2018-04-14T06:54:26.627Z,12.11
2018-04-14T06:55:26.638Z,11.97
2018-04-14T06:56:26.682Z,11.93
2018-04-14T06:57:26.687Z,11.89
2018-04-14T06:58:26.658Z,12.01
2018-04-14T06:59:26.662Z,12.01
2018-04-14T07:00:26.627Z,11.97
2018-04-14T07:01:26.624Z,11.82
2018-04-14T07:02:26.659Z,11.78
2018-04-14T07:03:26.642Z,12.01
2018-04-14T07:04:26.681Z,11.97
2018-04-14T07:05:26.609Z,11.97
2018-04-14T07:06:26.677Z,12.06
2018-04-14T07:07:26.692Z,12.01
2018-04-14T07:08:26.707Z,11.94
2018-04-14T07:09:26.650Z,12.09
2018-04-14T07:10:26.729Z,12.02
2018-04-14T07:11:26.607Z,11.99
2018-04-14T07:12:26.650Z,12.05
2018-04-14T07:13:26.641Z,12.05
2018-04-14T07:14:26.630Z,12.08
2018-04-14T07:15:26.625Z,11.93
2018-04-14T07:16:26.597Z,12.11
2018-04-14T07:17:26.597Z,12.08
2018-04-14T07:18:26.602Z,12.09
2018-04-14T07:19:26.592Z,12.06
2018-04-14T07:20:26.637Z,12.05
2018-04-14T07:21:26.625Z,11.93
2018-04-14T07:22:26.645Z,11.85
2018-04-14T07:23:26.623Z,12.01
2018-04-14T07:24:26.597Z,12.06
2018-04-14T07:25:26.580Z,12.01
2018-04-14T07:26:26.574Z,12.05
2018-04-14T07:27:26.570Z,12.04
2018-04-14T07:28:26.590Z,11.99
2018-04-14T07:29:26.645Z,12.11
2018-04-14T07:30:26.620Z,12.20
2018-04-14T07:31:26.570Z,12.12
2018-04-14T07:32:26.616Z,12.12
2018-04-14T07:33:26.583Z,12.13
2018-04-14T07:34:26.557Z,12.20
2018-04-14T07:35:26.558Z,12.13
2018-04-14T07:36:26.579Z,12.26
2018-04-14T07:37:26.550Z,12.29
2018-04-14T07:38:26.555Z,12.23
2018-04-14T07:39:26.585Z,12.27
2018-04-14T07:40:26.597Z,12.26
2018-04-14T07:41:26.540Z,12.16
2018-04-14T07:42:26.545Z,12.21
2018-04-14T07:43:26.541Z,12.23
2018-04-14T07:44:26.566Z,12.42
2018-04-14T07:45:26.558Z,12.30
2018-04-14T07:46:26.565Z,12.34
2018-04-14T07:47:26.531Z,12.45
2018-04-14T07:48:26.536Z,12.33
2018-04-14T07:49:26.537Z,12.44
2018-04-14T07:50:26.554Z,12.57
2018-04-14T07:51:26.525Z,12.54
2018-04-14T07:52:26.526Z,12.56
2018-04-14T07:53:26.529Z,12.49
2018-04-14T07:54:26.518Z,12.64
2018-04-14T07:55:26.522Z,12.63
2018-04-14T07:56:26.522Z,12.69
2018-04-14T07:57:26.510Z,12.67
2018-04-14T07:58:26.515Z,12.70
2018-04-14T07:59:26.512Z,12.71
2018-04-14T08:00:26.540Z,12.64
2018-04-14T08:01:26.504Z,12.69
2018-04-14T08:03:47.992Z,12.81
2018-04-14T08:04:47.733Z,12.79
2018-04-14T08:05:47.739Z,12.75
2018-04-14T08:06:47.738Z,12.64
2018-04-14T08:07:57.118Z,12.52
2018-04-14T08:09:41.161Z,12.70
2018-04-14T08:10:41.162Z,12.85
2018-04-14T08:11:41.205Z,12.82
2018-04-14T08:12:41.186Z,12.92
2018-04-14T08:13:41.139Z,13.02
2018-04-14T08:14:41.183Z,13.03
2018-04-14T08:15:41.145Z,13.18
2018-04-14T08:16:41.136Z,13.12
2018-04-14T08:17:41.143Z,13.12
2018-04-14T08:18:41.135Z,13.22
2018-04-14T08:19:41.135Z,13.29
2018-04-14T08:20:41.132Z,13.38
2018-04-14T08:21:41.147Z,13.43
2018-04-14T08:22:41.137Z,13.33
2018-04-14T08:23:41.143Z,13.43
2018-04-14T08:24:41.168Z,13.33
2018-04-14T08:25:41.142Z,13.54
2018-04-14T08:26:41.218Z,13.40
2018-04-14T08:27:41.126Z,13.63
2018-04-14T08:28:41.137Z,13.58
2018-04-14T08:29:41.124Z,13.49
2018-04-14T08:30:41.141Z,13.44
2018-04-14T08:31:41.186Z,13.58
2018-04-14T08:32:41.127Z,13.59
2018-04-14T08:33:41.114Z,13.63
2018-04-14T08:34:41.176Z,13.67
2018-04-14T08:35:41.122Z,13.74
2018-04-14T08:36:41.212Z,13.71
2018-04-14T08:37:41.099Z,13.77
2018-04-14T08:38:41.147Z,13.62
2018-04-14T08:39:41.099Z,13.59
2018-04-14T08:40:41.107Z,13.80
2018-04-14T08:41:41.109Z,13.59
2018-04-14T08:42:41.101Z,13.96
2018-04-14T08:43:41.092Z,13.96
2018-04-14T08:44:41.101Z,14.06
2018-04-14T08:45:41.097Z,13.98
2018-04-14T08:46:41.105Z,14.07
2018-04-14T08:47:41.120Z,14.01
2018-04-14T08:48:41.106Z,13.98
2018-04-14T08:49:41.096Z,13.99
2018-04-14T08:50:41.135Z,13.96
2018-04-14T08:51:41.083Z,13.99
2018-04-14T08:52:41.119Z,14.19
2018-04-14T08:53:41.099Z,14.17
2018-04-14T08:54:41.083Z,14.12
2018-04-14T08:55:41.116Z,14.21
2018-04-14T08:56:41.077Z,14.14
2018-04-14T08:57:41.078Z,14.19
2018-04-14T08:58:41.076Z,14.28
2018-04-14T08:59:41.091Z,14.09
2018-04-14T09:00:41.095Z,13.99
2018-04-14T09:01:41.085Z,13.99
2018-04-14T09:02:41.093Z,14.09
2018-04-14T09:03:41.072Z,14.27
2018-04-14T09:04:41.125Z,14.39
2018-04-14T09:05:41.073Z,14.49
2018-04-14T09:06:41.117Z,14.62
2018-04-14T09:07:41.096Z,14.78
2018-04-14T09:08:41.262Z,14.86
2018-04-14T09:09:41.104Z,14.94
2018-04-14T09:10:41.072Z,14.80
2018-04-14T09:11:41.076Z,14.62
2018-04-14T09:12:41.073Z,14.80
2018-04-14T09:13:41.093Z,15.06
2018-04-14T09:14:41.083Z,15.06
2018-04-14T09:15:41.079Z,14.88
2018-04-14T09:16:41.081Z,15.06
2018-04-14T09:17:41.062Z,15.09
2018-04-14T09:18:41.058Z,14.95
2018-04-14T09:19:41.069Z,14.87
2018-04-14T09:20:41.081Z,14.93
2018-04-14T09:21:41.068Z,15.12
2018-04-14T09:22:41.073Z,15.01
2018-04-14T09:23:41.057Z,15.11
2018-04-14T09:24:41.064Z,15.20
2018-04-14T09:25:41.074Z,15.19
2018-04-14T09:26:41.058Z,15.03
2018-04-14T09:27:41.115Z,15.24
2018-04-14T09:28:41.089Z,15.27
2018-04-14T09:29:41.084Z,15.23
2018-04-14T09:30:41.058Z,14.94
2018-04-14T09:31:41.056Z,14.95
2018-04-14T09:32:41.053Z,15.03
2018-04-14T09:33:41.057Z,15.26
2018-04-14T09:34:41.075Z,15.35
2018-04-14T09:35:41.073Z,15.49
2018-04-14T09:36:41.172Z,15.39
2018-04-14T09:37:41.058Z,15.33
2018-04-14T09:38:41.057Z,15.49
2018-04-14T09:39:41.072Z,15.46
2018-04-14T09:40:41.063Z,15.20
2018-04-14T09:41:41.097Z,15.49
2018-04-14T09:42:41.096Z,15.66
2018-04-14T09:43:41.077Z,15.67
2018-04-14T09:44:41.111Z,15.68
2018-04-14T09:45:41.083Z,15.59
2018-04-14T09:46:41.055Z,15.64
2018-04-14T09:47:41.051Z,15.68
2018-04-14T09:48:41.058Z,15.52
2018-04-14T09:49:41.055Z,15.41
2018-04-14T09:50:41.129Z,15.74
2018-04-14T09:51:41.064Z,15.78
2018-04-14T09:52:41.057Z,15.82
2018-04-14T09:53:41.068Z,15.81
2018-04-14T09:54:41.094Z,15.72
2018-04-14T09:55:41.066Z,15.74
2018-04-14T09:56:41.088Z,15.82
2018-04-14T09:57:41.084Z,15.96
2018-04-14T09:58:41.108Z,15.97
2018-04-14T09:59:41.091Z,15.94
2018-04-14T10:00:41.089Z,16.06
2018-04-14T10:01:41.089Z,15.82
2018-04-14T10:02:41.104Z,15.59
2018-04-14T10:03:41.057Z,15.41
2018-04-14T10:04:41.057Z,15.33
2018-04-14T10:05:41.073Z,15.46
2018-04-14T10:06:41.061Z,15.89
2018-04-14T10:09:02.141Z,16.23
2018-04-14T10:10:02.119Z,16.35
2018-04-14T10:11:02.122Z,15.97
2018-04-14T10:12:02.375Z,15.92
2018-04-14T10:13:02.125Z,15.78
2018-04-14T10:14:02.134Z,16.07
2018-04-14T10:15:02.177Z,16.09
2018-04-14T10:16:02.121Z,15.92
2018-04-14T10:17:02.194Z,15.93
2018-04-14T10:18:02.151Z,16.20
2018-04-14T10:19:02.130Z,16.09
2018-04-14T10:20:02.180Z,16.14
2018-04-14T10:21:02.182Z,16.20
2018-04-14T10:22:02.149Z,16.18
2018-04-14T10:23:02.135Z,16.23
2018-04-14T10:24:02.140Z,16.12
2018-04-14T10:25:02.137Z,15.96
2018-04-14T10:26:02.129Z,16.09
2018-04-14T10:27:02.127Z,16.23
2018-04-14T10:28:02.133Z,16.22
2018-04-14T10:29:02.132Z,16.20
2018-04-14T10:30:02.130Z,16.16
2018-04-14T10:31:02.135Z,16.34
2018-04-14T10:32:02.135Z,16.25
2018-04-14T10:33:02.152Z,16.26
2018-04-14T10:34:02.133Z,16.68
2018-04-14T10:35:02.136Z,16.90
2018-04-14T10:36:02.139Z,16.80
2018-04-14T10:37:02.193Z,16.81
2018-04-14T10:38:02.159Z,17.06
2018-04-14T10:39:02.158Z,16.71
2018-04-14T10:40:02.155Z,16.62
2018-04-14T10:41:02.165Z,16.71
2018-04-14T10:42:02.159Z,16.90
2018-04-14T10:43:02.152Z,16.95
2018-04-14T10:44:02.146Z,17.04
2018-04-14T10:45:02.258Z,17.00
2018-04-14T10:46:02.152Z,17.14
2018-04-14T10:47:02.154Z,17.20
2018-04-14T10:48:02.156Z,17.22
2018-04-14T10:49:02.157Z,16.98
2018-04-14T10:50:02.191Z,16.83
2018-04-14T10:51:02.163Z,16.75
2018-04-14T10:52:02.158Z,16.98
2018-04-14T10:53:02.161Z,16.98
2018-04-14T10:54:02.163Z,16.80
2018-04-14T10:55:02.193Z,16.83
2018-04-14T10:56:02.176Z,17.15
2018-04-14T10:57:02.166Z,17.29
2018-04-14T10:58:02.178Z,17.17
2018-04-14T10:59:02.192Z,17.23
2018-04-14T11:00:02.189Z,17.29
2018-04-14T11:01:02.188Z,17.29
2018-04-14T11:02:02.211Z,17.07
2018-04-14T11:03:02.179Z,17.13
2018-04-14T11:04:02.181Z,17.30
2018-04-14T11:05:02.184Z,17.41
2018-04-14T11:06:02.214Z,17.51
2018-04-14T11:07:02.177Z,17.23
2018-04-14T11:08:02.193Z,17.14
2018-04-14T11:09:02.185Z,17.15
2018-04-14T11:10:02.193Z,17.14
2018-04-14T11:11:02.221Z,17.54
2018-04-14T11:12:02.188Z,17.79
2018-04-14T11:13:02.196Z,17.76
2018-04-14T11:14:02.197Z,17.88
2018-04-14T11:15:02.200Z,17.73
2018-04-14T11:16:02.199Z,17.70
2018-04-14T11:17:02.208Z,17.76
2018-04-14T11:18:02.236Z,17.53
2018-04-14T11:19:02.214Z,17.57
2018-04-14T11:20:02.227Z,17.74
2018-04-14T11:21:02.233Z,17.53
2018-04-14T11:22:02.233Z,17.69
2018-04-14T11:23:02.235Z,17.54
2018-04-14T11:24:02.224Z,17.78
2018-04-14T11:25:02.211Z,17.87
2018-04-14T11:26:02.215Z,17.81
2018-04-14T11:27:02.218Z,17.94
2018-04-14T11:28:02.222Z,17.92
2018-04-14T11:29:02.223Z,17.82
2018-04-14T11:30:02.234Z,17.79
2018-04-14T11:31:02.247Z,17.54
2018-04-14T11:32:02.224Z,17.55
2018-04-14T11:33:02.228Z,17.35
2018-04-14T11:34:02.263Z,17.28
2018-04-14T11:35:02.233Z,17.64
2018-04-14T11:36:02.243Z,17.81
2018-04-14T11:37:02.242Z,17.92
2018-04-14T11:38:02.245Z,17.81
2018-04-14T11:39:02.248Z,17.85
2018-04-14T11:40:02.242Z,17.76
2018-04-14T11:41:02.265Z,18.04
2018-04-14T11:42:02.247Z,18.04
2018-04-14T11:43:02.272Z,18.07
2018-04-14T11:44:02.300Z,17.84
2018-04-14T11:45:02.252Z,17.84
2018-04-14T11:46:02.254Z,18.02
2018-04-14T11:47:02.254Z,18.00
2018-04-14T11:48:02.254Z,18.09
2018-04-14T11:49:02.265Z,17.74
2018-04-14T11:50:02.286Z,17.38
2018-04-14T11:51:02.330Z,17.41
2018-04-14T11:52:02.302Z,17.59
2018-04-14T11:53:02.298Z,17.84
2018-04-14T11:54:02.300Z,17.82
2018-04-14T11:55:02.274Z,18.37
2018-04-14T11:56:02.286Z,18.06
2018-04-14T11:57:02.302Z,17.76
2018-04-14T11:58:02.288Z,18.33
2018-04-14T11:59:02.345Z,18.44
2018-04-14T12:00:02.296Z,18.49
2018-04-14T12:01:02.353Z,18.61
2018-04-14T12:02:02.310Z,18.43
2018-04-14T12:03:02.324Z,18.62
2018-04-14T12:04:02.356Z,18.59
2018-04-14T12:05:02.568Z,18.49
2018-04-14T12:06:02.345Z,18.25
2018-04-14T12:07:02.305Z,18.18
2018-04-14T12:08:02.460Z,18.19
2018-04-14T12:09:02.373Z,18.37
2018-04-14T12:10:02.390Z,18.49
2018-04-14T12:11:02.311Z,18.58
2018-04-14T12:12:02.495Z,18.64
2018-04-14T12:13:02.500Z,18.37
2018-04-14T12:14:02.346Z,17.84
2018-04-14T12:15:02.400Z,18.24
2018-04-14T12:16:02.357Z,17.97
2018-04-14T12:17:02.368Z,17.85
2018-04-14T12:18:02.390Z,18.42
2018-04-14T12:19:02.342Z,18.40
2018-04-14T12:20:02.341Z,18.64
2018-04-14T12:21:02.348Z,18.29
2018-04-14T12:22:02.357Z,18.17
2018-04-14T12:23:02.373Z,18.33
2018-04-14T12:24:02.362Z,18.07
2018-04-14T12:25:02.419Z,17.81
2018-04-14T12:26:02.391Z,18.13
2018-04-14T12:27:02.386Z,18.65
2018-04-14T12:28:02.396Z,18.90
2018-04-14T12:29:02.411Z,18.76
2018-04-14T12:30:02.420Z,18.91
2018-04-14T12:31:02.400Z,18.98
2018-04-14T12:32:02.406Z,18.84
2018-04-14T12:33:02.391Z,18.98
2018-04-14T12:34:02.381Z,18.73
2018-04-14T12:35:02.534Z,18.58
2018-04-14T12:36:02.460Z,18.58
2018-04-14T12:37:02.437Z,18.92
2018-04-14T12:38:02.389Z,19.05
2018-04-14T12:39:02.425Z,18.95
2018-04-14T12:40:02.393Z,18.73
2018-04-14T12:41:02.397Z,18.73
2018-04-14T12:42:02.424Z,18.73
2018-04-14T12:43:02.413Z,18.86
2018-04-14T12:44:02.415Z,19.18
2018-04-14T12:45:02.433Z,19.06
2018-04-14T12:46:02.412Z,19.20
2018-04-14T12:47:02.415Z,19.20
2018-04-14T12:48:02.456Z,19.17
2018-04-14T12:49:02.427Z,19.20
2018-04-14T12:50:02.440Z,18.97
2018-04-14T12:51:02.473Z,18.61
2018-04-14T12:52:02.464Z,18.83
2018-04-14T12:53:02.463Z,18.86
2018-04-14T12:54:02.465Z,18.95
2018-04-14T12:55:02.465Z,19.01
2018-04-14T12:56:02.510Z,18.87
2018-04-14T12:57:02.465Z,18.83
2018-04-14T12:58:02.471Z,18.92
2018-04-14T12:59:02.463Z,18.94
2018-04-14T13:00:02.446Z,18.94
2018-04-14T13:01:02.691Z,18.92
2018-04-14T13:02:02.462Z,18.87
2018-04-14T13:03:02.456Z,18.99
2018-04-14T13:04:02.461Z,18.94
2018-04-14T13:05:02.485Z,19.08
2018-04-14T13:06:02.468Z,19.15
2018-04-14T13:07:02.532Z,19.13
2018-04-14T13:08:02.477Z,19.08
2018-04-14T13:09:02.492Z,19.01
2018-04-14T13:10:02.483Z,19.08
2018-04-14T13:11:02.495Z,19.02
2018-04-14T13:12:02.492Z,18.73
2018-04-14T13:13:02.493Z,18.80
2018-04-14T13:14:02.510Z,18.55
2018-04-14T13:15:02.505Z,18.57
2018-04-14T13:16:02.505Z,18.52
2018-04-14T13:17:02.518Z,18.77
2018-04-14T13:18:02.523Z,19.05
2018-04-14T13:19:02.580Z,18.90
2018-04-14T13:20:02.532Z,18.87
2018-04-14T13:21:02.558Z,19.15
2018-04-14T13:22:02.534Z,18.95
2018-04-14T13:23:02.558Z,18.84
2018-04-14T13:24:02.539Z,19.01
2018-04-14T13:25:02.568Z,19.02
2018-04-14T13:26:02.544Z,19.02
2018-04-14T13:27:02.621Z,18.91
2018-04-14T13:28:02.566Z,18.99
2018-04-14T13:29:02.578Z,18.95
2018-04-14T13:30:02.550Z,19.10
2018-04-14T13:31:02.550Z,19.02
2018-04-14T13:32:02.548Z,18.95
2018-04-14T13:33:11.750Z,18.74
2018-04-14T13:34:56.169Z,19.25
2018-04-14T13:35:56.000Z,19.20
2018-04-14T13:36:56.070Z,19.36
2018-04-14T13:37:56.025Z,19.31
2018-04-14T13:38:56.038Z,19.35
2018-04-14T13:39:56.001Z,19.46
2018-04-14T13:40:56.005Z,19.55
2018-04-14T13:41:56.002Z,19.48
2018-04-14T13:42:56.039Z,19.39
2018-04-14T13:43:56.048Z,19.60
2018-04-14T13:44:56.025Z,19.65
2018-04-14T13:45:56.032Z,19.58
2018-04-14T13:46:56.096Z,19.51
2018-04-14T13:47:56.053Z,19.51
2018-04-14T13:48:56.059Z,19.53
2018-04-14T13:49:56.037Z,19.31
2018-04-14T13:50:56.126Z,19.50
2018-04-14T13:51:56.021Z,19.50
2018-04-14T13:52:56.035Z,19.35
2018-04-14T13:53:56.031Z,19.40
2018-04-14T13:54:56.033Z,19.40
2018-04-14T13:55:56.030Z,19.25
2018-04-14T13:56:56.033Z,19.39
2018-04-14T13:57:56.040Z,19.20
2018-04-14T13:58:56.043Z,19.50
2018-04-14T13:59:56.082Z,19.66
2018-04-14T14:00:56.075Z,19.36
2018-04-14T14:01:56.092Z,19.40
2018-04-14T14:02:56.076Z,19.42
2018-04-14T14:03:56.071Z,19.73
2018-04-14T14:04:56.081Z,19.69
2018-04-14T14:05:56.096Z,19.93
2018-04-14T14:06:56.068Z,19.90
2018-04-14T14:07:56.117Z,19.94
2018-04-14T14:08:56.081Z,20.10
2018-04-14T14:09:56.105Z,20.09
2018-04-14T14:10:56.117Z,20.05
2018-04-14T14:11:56.084Z,20.02
2018-04-14T14:12:56.103Z,20.13
2018-04-14T14:13:56.115Z,19.83
2018-04-14T14:14:56.118Z,20.06
2018-04-14T14:15:56.110Z,20.12
2018-04-14T14:16:56.110Z,20.21
2018-04-14T14:17:56.104Z,20.12
2018-04-14T14:18:56.109Z,19.98
2018-04-14T14:19:56.129Z,19.90
2018-04-14T14:20:56.311Z,19.91
2018-04-14T14:21:56.161Z,20.05
2018-04-14T14:22:56.147Z,19.94
2018-04-14T14:23:56.150Z,19.93
2018-04-14T14:24:56.172Z,20.03
2018-04-14T14:25:56.135Z,20.02
2018-04-14T14:26:56.214Z,19.86
2018-04-14T14:27:56.144Z,19.86
2018-04-14T14:28:56.145Z,19.87
2018-04-14T14:29:56.164Z,19.76
2018-04-14T14:30:56.165Z,19.88
2018-04-14T14:31:56.238Z,19.87
2018-04-14T14:32:56.256Z,19.87
2018-04-14T14:33:56.171Z,19.68
2018-04-14T14:34:56.219Z,19.75
2018-04-14T14:35:56.240Z,19.87
2018-04-14T14:36:56.329Z,19.57
2018-04-14T14:37:56.242Z,19.65
2018-04-14T14:38:56.257Z,19.72
2018-04-14T14:39:56.223Z,19.66
2018-04-14T14:40:56.340Z,19.55
2018-04-14T14:41:56.219Z,19.33
2018-04-14T14:42:56.240Z,19.68
2018-04-14T14:43:56.264Z,19.93
2018-04-14T14:44:56.221Z,19.86
2018-04-14T14:45:56.376Z,20.12
2018-04-14T14:46:56.238Z,19.98
2018-04-14T14:47:56.223Z,19.91
2018-04-14T14:48:56.222Z,20.09
2018-04-14T14:51:18.799Z,20.05
2018-04-14T14:52:18.533Z,20.12
2018-04-14T14:53:18.531Z,20.20
2018-04-14T14:54:18.529Z,20.28
2018-04-14T14:55:18.541Z,20.33
2018-04-14T14:56:18.510Z,20.38
2018-04-14T14:57:18.503Z,20.30
2018-04-14T14:58:18.599Z,20.05
2018-04-14T14:59:18.518Z,20.10
2018-04-14T15:00:18.516Z,20.16
2018-04-14T15:01:18.616Z,20.10
2018-04-14T15:02:18.530Z,20.02
2018-04-14T15:03:18.551Z,20.08
2018-04-14T15:04:18.552Z,20.27
2018-04-14T15:05:18.599Z,20.39
2018-04-14T15:06:18.597Z,20.50
2018-04-14T15:07:18.713Z,20.51
2018-04-14T15:08:18.612Z,20.43
2018-04-14T15:09:18.567Z,20.39
2018-04-14T15:10:18.680Z,20.30
2018-04-14T15:11:18.755Z,20.21
2018-04-14T15:12:18.594Z,20.58
2018-04-14T15:13:18.597Z,20.71
2018-04-14T15:14:18.664Z,20.72
2018-04-14T15:15:18.676Z,20.74
2018-04-14T15:16:18.679Z,20.71
2018-04-14T15:17:18.596Z,20.58
2018-04-14T15:18:18.680Z,20.50
2018-04-14T15:19:18.604Z,20.54
2018-04-14T15:20:18.601Z,20.46
2018-04-14T15:21:18.624Z,20.49
2018-04-14T15:22:18.634Z,20.39
2018-04-14T15:23:18.750Z,20.50
2018-04-14T15:24:18.630Z,20.47
2018-04-14T15:25:18.638Z,20.61
2018-04-14T15:26:18.770Z,20.53
2018-04-14T15:27:18.670Z,20.35
2018-04-14T15:28:18.779Z,20.23
2018-04-14T15:29:18.667Z,20.46
2018-04-14T15:30:18.769Z,20.53
2018-04-14T15:31:18.745Z,20.39
2018-04-14T15:32:18.898Z,20.42
2018-04-14T15:33:18.910Z,20.42
2018-04-14T15:34:18.736Z,20.49
2018-04-14T15:35:18.717Z,20.58
2018-04-14T15:36:18.744Z,20.27
2018-04-14T15:37:18.837Z,20.43
2018-04-14T15:38:18.776Z,20.47
2018-04-14T15:39:18.721Z,20.50
2018-04-14T15:40:18.729Z,20.50
2018-04-14T15:41:18.707Z,20.28
2018-04-14T15:42:18.699Z,20.35
2018-04-14T15:43:18.734Z,20.51
2018-04-14T15:44:18.711Z,20.41
2018-04-14T15:45:18.781Z,20.41
2018-04-14T15:46:18.706Z,20.39
2018-04-14T15:47:18.731Z,20.41
2018-04-14T15:48:18.835Z,20.38
2018-04-14T15:49:18.802Z,20.47
2018-04-14T15:50:18.725Z,20.42
2018-04-14T15:51:18.808Z,20.28
2018-04-14T15:52:18.732Z,20.43
2018-04-14T15:53:18.826Z,20.41
2018-04-14T15:54:18.816Z,20.42
2018-04-14T15:55:18.834Z,20.28
2018-04-14T15:56:18.787Z,20.42
2018-04-14T15:57:18.812Z,20.49
2018-04-14T15:58:18.779Z,20.38
2018-04-14T15:59:18.760Z,20.34
2018-04-14T16:00:18.791Z,20.39
2018-04-14T16:01:18.803Z,20.38
2018-04-14T16:02:18.808Z,20.34
2018-04-14T16:03:18.802Z,20.31
2018-04-14T16:04:18.904Z,20.35
2018-04-14T16:05:18.816Z,20.30
2018-04-14T16:06:18.823Z,20.13
2018-04-14T16:07:18.834Z,20.18
2018-04-14T16:08:18.936Z,20.38
2018-04-14T16:09:18.917Z,20.38
2018-04-14T16:10:18.946Z,20.42
2018-04-14T16:11:20.362Z,20.46
2018-04-14T16:12:18.908Z,20.50
2018-04-14T16:13:18.902Z,20.41
2018-04-14T16:14:18.861Z,20.43
2018-04-14T16:15:18.914Z,20.46
2018-04-14T16:16:18.861Z,20.30
2018-04-14T16:17:18.909Z,20.33
2018-04-14T16:18:18.846Z,20.23
2018-04-14T16:19:18.973Z,20.25
2018-04-14T16:20:18.860Z,20.35
2018-04-14T16:21:18.917Z,20.35
2018-04-14T16:22:18.848Z,20.25
2018-04-14T16:23:18.943Z,20.23
2018-04-14T16:24:18.853Z,20.24
2018-04-14T16:25:18.967Z,20.24
2018-04-14T16:26:18.864Z,20.25